sensor_id;sensor_type;location;lat;lon;timestamp;P1;durP1;ratioP1;P2;durP2;ratioP2
7875;SDS011;69649;53.712;9.680;2023-09-30T00:01:10;9.10;;;2.43;;
7875;SDS011;69649;53.712;9.680;2023-09-30T00:03:36;7.13;;;3.03;;
7875;SDS011;69649;53.712;9.680;2023-09-30T00:06:03;13.90;;;3.13;;
7875;SDS011;69649;53.712;9.680;2023-09-30T00:08:29;7.67;;;2.37;;
7875;SDS011;69649;53.712;9.680;2023-09-30T00:10:56;10.03;;;3.20;;
7875;SDS011;69649;53.712;9.680;2023-09-30T00:13:21;10.80;;;2.70;;
7875;SDS011;69649;53.712;9.680;2023-09-30T00:15:48;8.50;;;3.03;;
7875;SDS011;69649;53.712;9.680;2023-09-30T00:18:13;8.23;;;2.47;;
7875;SDS011;69649;53.712;9.680;2023-09-30T00:20:39;8.53;;;2.90;;
7875;SDS011;69649;53.712;9.680;2023-09-30T00:23:05;13.57;;;2.77;;
7875;SDS011;69649;53.712;9.680;2023-09-30T00:25:32;6.90;;;2.67;;
7875;SDS011;69649;53.712;9.680;2023-09-30T00:27:58;10.87;;;3.87;;
7875;SDS011;69649;53.712;9.680;2023-09-30T00:30:24;12.00;;;2.90;;
7875;SDS011;69649;53.712;9.680;2023-09-30T00:35:35;13.93;;;2.77;;
7875;SDS011;69649;53.712;9.680;2023-09-30T00:38:02;5.00;;;2.20;;
7875;SDS011;69649;53.712;9.680;2023-09-30T00:40:28;11.27;;;3.07;;
7875;SDS011;69649;53.712;9.680;2023-09-30T00:42:55;7.23;;;2.23;;
7875;SDS011;69649;53.712;9.680;2023-09-30T00:45:21;12.57;;;2.83;;
7875;SDS011;69649;53.712;9.680;2023-09-30T00:47:47;14.10;;;2.80;;
7875;SDS011;69649;53.712;9.680;2023-09-30T00:50:13;8.20;;;2.97;;
7875;SDS011;69649;53.712;9.680;2023-09-30T00:52:39;20.37;;;2.87;;
7875;SDS011;69649;53.712;9.680;2023-09-30T00:55:07;6.40;;;2.47;;
7875;SDS011;69649;53.712;9.680;2023-09-30T00:57:34;9.27;;;2.97;;
7875;SDS011;69649;53.712;9.680;2023-09-30T01:00:00;14.47;;;2.33;;
7875;SDS011;69649;53.712;9.680;2023-09-30T01:02:27;11.63;;;2.67;;
7875;SDS011;69649;53.712;9.680;2023-09-30T01:04:52;9.73;;;2.73;;
7875;SDS011;69649;53.712;9.680;2023-09-30T01:07:20;10.83;;;2.50;;
7875;SDS011;69649;53.712;9.680;2023-09-30T01:09:49;12.33;;;2.40;;
7875;SDS011;69649;53.712;9.680;2023-09-30T01:12:16;7.83;;;2.80;;
7875;SDS011;69649;53.712;9.680;2023-09-30T01:14:41;9.73;;;2.77;;
7875;SDS011;69649;53.712;9.680;2023-09-30T01:17:08;12.87;;;2.93;;
7875;SDS011;69649;53.712;9.680;2023-09-30T01:19:34;10.07;;;2.70;;
7875;SDS011;69649;53.712;9.680;2023-09-30T01:22:01;9.00;;;2.53;;
7875;SDS011;69649;53.712;9.680;2023-09-30T01:24:28;14.57;;;2.67;;
7875;SDS011;69649;53.712;9.680;2023-09-30T01:26:55;13.63;;;3.53;;
7875;SDS011;69649;53.712;9.680;2023-09-30T01:29:22;10.27;;;2.43;;
7875;SDS011;69649;53.712;9.680;2023-09-30T01:31:48;8.83;;;2.80;;
7875;SDS011;69649;53.712;9.680;2023-09-30T01:34:15;10.27;;;2.60;;
7875;SDS011;69649;53.712;9.680;2023-09-30T01:36:42;9.63;;;2.83;;
7875;SDS011;69649;53.712;9.680;2023-09-30T01:39:11;5.33;;;1.93;;
7875;SDS011;69649;53.712;9.680;2023-09-30T01:41:37;13.53;;;2.60;;
7875;SDS011;69649;53.712;9.680;2023-09-30T01:44:06;9.23;;;2.67;;
7875;SDS011;69649;53.712;9.680;2023-09-30T01:46:52;11.10;;;2.67;;
7875;SDS011;69649;53.712;9.680;2023-09-30T01:49:17;10.87;;;2.50;;
7875;SDS011;69649;53.712;9.680;2023-09-30T01:51:48;6.43;;;2.70;;
7875;SDS011;69649;53.712;9.680;2023-09-30T01:54:14;9.20;;;3.00;;
7875;SDS011;69649;53.712;9.680;2023-09-30T01:56:39;12.43;;;2.50;;
7875;SDS011;69649;53.712;9.680;2023-09-30T01:59:05;10.60;;;2.97;;
7875;SDS011;69649;53.712;9.680;2023-09-30T02:01:31;14.90;;;2.57;;
7875;SDS011;69649;53.712;9.680;2023-09-30T02:03:57;11.30;;;2.67;;
7875;SDS011;69649;53.712;9.680;2023-09-30T02:06:23;12.30;;;2.70;;
7875;SDS011;69649;53.712;9.680;2023-09-30T02:08:48;10.53;;;2.30;;
7875;SDS011;69649;53.712;9.680;2023-09-30T02:11:14;9.30;;;2.50;;
7875;SDS011;69649;53.712;9.680;2023-09-30T02:13:40;8.80;;;2.47;;
7875;SDS011;69649;53.712;9.680;2023-09-30T02:16:11;10.70;;;2.37;;
7875;SDS011;69649;53.712;9.680;2023-09-30T02:18:39;5.93;;;2.33;;
7875;SDS011;69649;53.712;9.680;2023-09-30T02:21:07;6.77;;;2.40;;
7875;SDS011;69649;53.712;9.680;2023-09-30T02:23:34;10.50;;;2.60;;
7875;SDS011;69649;53.712;9.680;2023-09-30T02:26:01;9.57;;;2.60;;
7875;SDS011;69649;53.712;9.680;2023-09-30T02:28:28;8.07;;;2.83;;
7875;SDS011;69649;53.712;9.680;2023-09-30T02:30:56;12.30;;;2.63;;
7875;SDS011;69649;53.712;9.680;2023-09-30T02:33:22;10.33;;;2.60;;
7875;SDS011;69649;53.712;9.680;2023-09-30T02:35:48;6.13;;;2.10;;
7875;SDS011;69649;53.712;9.680;2023-09-30T02:38:15;7.17;;;2.70;;
7875;SDS011;69649;53.712;9.680;2023-09-30T02:40:44;11.50;;;2.63;;
7875;SDS011;69649;53.712;9.680;2023-09-30T02:43:12;11.00;;;2.37;;
7875;SDS011;69649;53.712;9.680;2023-09-30T02:45:39;12.20;;;2.87;;
7875;SDS011;69649;53.712;9.680;2023-09-30T02:48:04;13.50;;;2.57;;
7875;SDS011;69649;53.712;9.680;2023-09-30T02:50:32;8.77;;;2.70;;
7875;SDS011;69649;53.712;9.680;2023-09-30T02:52:57;5.23;;;1.90;;
7875;SDS011;69649;53.712;9.680;2023-09-30T02:55:23;9.67;;;3.07;;
7875;SDS011;69649;53.712;9.680;2023-09-30T02:57:49;8.63;;;2.43;;
7875;SDS011;69649;53.712;9.680;2023-09-30T03:00:15;9.80;;;2.73;;
7875;SDS011;69649;53.712;9.680;2023-09-30T03:02:48;7.67;;;3.47;;
7875;SDS011;69649;53.712;9.680;2023-09-30T03:05:16;6.80;;;2.57;;
7875;SDS011;69649;53.712;9.680;2023-09-30T03:07:42;12.80;;;2.87;;
7875;SDS011;69649;53.712;9.680;2023-09-30T03:10:08;6.67;;;2.57;;
7875;SDS011;69649;53.712;9.680;2023-09-30T03:12:35;12.70;;;3.13;;
7875;SDS011;69649;53.712;9.680;2023-09-30T03:15:01;6.90;;;2.70;;
7875;SDS011;69649;53.712;9.680;2023-09-30T03:17:30;6.43;;;2.87;;
7875;SDS011;69649;53.712;9.680;2023-09-30T03:19:57;11.83;;;2.60;;
7875;SDS011;69649;53.712;9.680;2023-09-30T03:22:25;4.60;;;2.67;;
7875;SDS011;69649;53.712;9.680;2023-09-30T03:24:52;5.77;;;2.47;;
7875;SDS011;69649;53.712;9.680;2023-09-30T03:27:22;10.23;;;2.67;;
7875;SDS011;69649;53.712;9.680;2023-09-30T03:29:48;8.00;;;2.57;;
7875;SDS011;69649;53.712;9.680;2023-09-30T03:32:15;8.10;;;3.07;;
7875;SDS011;69649;53.712;9.680;2023-09-30T03:34:40;14.77;;;3.07;;
7875;SDS011;69649;53.712;9.680;2023-09-30T03:37:08;11.00;;;2.83;;
7875;SDS011;69649;53.712;9.680;2023-09-30T03:39:35;14.47;;;3.40;;
7875;SDS011;69649;53.712;9.680;2023-09-30T03:42:00;8.33;;;2.83;;
7875;SDS011;69649;53.712;9.680;2023-09-30T03:44:28;9.70;;;2.93;;
7875;SDS011;69649;53.712;9.680;2023-09-30T03:46:54;15.80;;;3.63;;
7875;SDS011;69649;53.712;9.680;2023-09-30T03:49:20;11.47;;;2.90;;
7875;SDS011;69649;53.712;9.680;2023-09-30T03:51:46;12.23;;;2.93;;
7875;SDS011;69649;53.712;9.680;2023-09-30T03:54:12;9.70;;;3.00;;
7875;SDS011;69649;53.712;9.680;2023-09-30T03:56:38;13.13;;;3.30;;
7875;SDS011;69649;53.712;9.680;2023-09-30T03:59:04;9.63;;;3.20;;
7875;SDS011;69649;53.712;9.680;2023-09-30T04:01:30;9.50;;;2.70;;
7875;SDS011;69649;53.712;9.680;2023-09-30T04:03:56;8.07;;;3.40;;
7875;SDS011;69649;53.712;9.680;2023-09-30T04:09:08;12.33;;;3.37;;
7875;SDS011;69649;53.712;9.680;2023-09-30T04:11:35;10.77;;;3.47;;
7875;SDS011;69649;53.712;9.680;2023-09-30T04:14:03;8.00;;;2.93;;
7875;SDS011;69649;53.712;9.680;2023-09-30T04:16:31;12.67;;;4.23;;
7875;SDS011;69649;53.712;9.680;2023-09-30T04:18:57;8.33;;;3.30;;
7875;SDS011;69649;53.712;9.680;2023-09-30T04:21:23;13.87;;;3.47;;
7875;SDS011;69649;53.712;9.680;2023-09-30T04:23:49;11.43;;;3.37;;
7875;SDS011;69649;53.712;9.680;2023-09-30T04:26:15;7.33;;;2.73;;
7875;SDS011;69649;53.712;9.680;2023-09-30T04:28:41;9.67;;;3.23;;
7875;SDS011;69649;53.712;9.680;2023-09-30T04:31:06;10.77;;;2.77;;
7875;SDS011;69649;53.712;9.680;2023-09-30T04:33:33;6.50;;;2.27;;
7875;SDS011;69649;53.712;9.680;2023-09-30T04:36:01;8.80;;;2.93;;
7875;SDS011;69649;53.712;9.680;2023-09-30T04:38:27;10.47;;;3.50;;
7875;SDS011;69649;53.712;9.680;2023-09-30T04:40:53;8.97;;;3.60;;
7875;SDS011;69649;53.712;9.680;2023-09-30T04:43:20;12.83;;;3.97;;
7875;SDS011;69649;53.712;9.680;2023-09-30T04:45:46;12.43;;;3.13;;
7875;SDS011;69649;53.712;9.680;2023-09-30T04:48:14;19.63;;;4.50;;
7875;SDS011;69649;53.712;9.680;2023-09-30T04:50:40;9.33;;;2.97;;
7875;SDS011;69649;53.712;9.680;2023-09-30T04:53:06;10.83;;;3.27;;
7875;SDS011;69649;53.712;9.680;2023-09-30T04:55:34;12.13;;;3.17;;
7875;SDS011;69649;53.712;9.680;2023-09-30T04:58:00;8.57;;;3.07;;
7875;SDS011;69649;53.712;9.680;2023-09-30T05:00:25;11.23;;;3.90;;
7875;SDS011;69649;53.712;9.680;2023-09-30T05:02:54;9.10;;;3.57;;
7875;SDS011;69649;53.712;9.680;2023-09-30T05:05:20;12.23;;;3.23;;
7875;SDS011;69649;53.712;9.680;2023-09-30T05:07:46;6.00;;;2.70;;
7875;SDS011;69649;53.712;9.680;2023-09-30T05:10:13;12.30;;;3.43;;
7875;SDS011;69649;53.712;9.680;2023-09-30T05:12:44;7.90;;;2.70;;
7875;SDS011;69649;53.712;9.680;2023-09-30T05:15:12;8.07;;;3.40;;
7875;SDS011;69649;53.712;9.680;2023-09-30T05:17:44;8.07;;;2.87;;
7875;SDS011;69649;53.712;9.680;2023-09-30T05:20:33;8.33;;;3.80;;
7875;SDS011;69649;53.712;9.680;2023-09-30T05:23:00;8.43;;;2.83;;
7875;SDS011;69649;53.712;9.680;2023-09-30T05:25:26;9.53;;;3.10;;
7875;SDS011;69649;53.712;9.680;2023-09-30T05:27:53;7.27;;;2.80;;
7875;SDS011;69649;53.712;9.680;2023-09-30T05:30:19;11.13;;;3.40;;
7875;SDS011;69649;53.712;9.680;2023-09-30T05:32:45;10.70;;;3.20;;
7875;SDS011;69649;53.712;9.680;2023-09-30T05:35:12;12.63;;;3.33;;
7875;SDS011;69649;53.712;9.680;2023-09-30T05:37:41;9.80;;;3.33;;
7875;SDS011;69649;53.712;9.680;2023-09-30T05:40:08;11.20;;;4.03;;
7875;SDS011;69649;53.712;9.680;2023-09-30T05:42:36;9.70;;;3.60;;
7875;SDS011;69649;53.712;9.680;2023-09-30T05:45:02;16.37;;;4.07;;
7875;SDS011;69649;53.712;9.680;2023-09-30T05:47:30;12.10;;;3.20;;
7875;SDS011;69649;53.712;9.680;2023-09-30T05:49:56;9.87;;;4.10;;
7875;SDS011;69649;53.712;9.680;2023-09-30T05:52:22;10.60;;;3.80;;
7875;SDS011;69649;53.712;9.680;2023-09-30T05:57:33;9.53;;;3.60;;
7875;SDS011;69649;53.712;9.680;2023-09-30T06:00:01;9.13;;;3.20;;
7875;SDS011;69649;53.712;9.680;2023-09-30T06:02:27;11.13;;;3.33;;
7875;SDS011;69649;53.712;9.680;2023-09-30T06:04:54;10.03;;;3.80;;
7875;SDS011;69649;53.712;9.680;2023-09-30T06:07:22;10.03;;;3.53;;
7875;SDS011;69649;53.712;9.680;2023-09-30T06:09:48;8.03;;;3.03;;
7875;SDS011;69649;53.712;9.680;2023-09-30T06:12:15;13.13;;;2.80;;
7875;SDS011;69649;53.712;9.680;2023-09-30T06:14:40;9.00;;;3.00;;
7875;SDS011;69649;53.712;9.680;2023-09-30T06:17:07;6.37;;;2.90;;
7875;SDS011;69649;53.712;9.680;2023-09-30T06:19:33;9.67;;;2.73;;
7875;SDS011;69649;53.712;9.680;2023-09-30T06:21:59;11.93;;;2.97;;
7875;SDS011;69649;53.712;9.680;2023-09-30T06:24:25;8.37;;;3.50;;
7875;SDS011;69649;53.712;9.680;2023-09-30T06:26:50;13.97;;;3.10;;
7875;SDS011;69649;53.712;9.680;2023-09-30T06:29:17;4.80;;;2.10;;
7875;SDS011;69649;53.712;9.680;2023-09-30T06:31:42;13.57;;;3.13;;
7875;SDS011;69649;53.712;9.680;2023-09-30T06:34:08;12.07;;;2.80;;
7875;SDS011;69649;53.712;9.680;2023-09-30T06:36:36;9.50;;;2.40;;
7875;SDS011;69649;53.712;9.680;2023-09-30T06:39:03;8.53;;;2.60;;
7875;SDS011;69649;53.712;9.680;2023-09-30T06:41:31;8.33;;;2.70;;
7875;SDS011;69649;53.712;9.680;2023-09-30T06:43:57;11.00;;;2.97;;
7875;SDS011;69649;53.712;9.680;2023-09-30T06:46:22;11.90;;;3.20;;
7875;SDS011;69649;53.712;9.680;2023-09-30T06:48:49;9.40;;;2.83;;
7875;SDS011;69649;53.712;9.680;2023-09-30T06:51:17;9.43;;;2.70;;
7875;SDS011;69649;53.712;9.680;2023-09-30T06:53:43;4.60;;;2.00;;
7875;SDS011;69649;53.712;9.680;2023-09-30T06:56:11;11.40;;;3.80;;
7875;SDS011;69649;53.712;9.680;2023-09-30T06:58:38;10.40;;;3.57;;
7875;SDS011;69649;53.712;9.680;2023-09-30T07:01:04;11.40;;;2.83;;
7875;SDS011;69649;53.712;9.680;2023-09-30T07:03:30;8.47;;;3.03;;
7875;SDS011;69649;53.712;9.680;2023-09-30T07:05:55;11.27;;;2.60;;
7875;SDS011;69649;53.712;9.680;2023-09-30T07:08:23;9.13;;;2.90;;
7875;SDS011;69649;53.712;9.680;2023-09-30T07:10:49;11.17;;;2.67;;
7875;SDS011;69649;53.712;9.680;2023-09-30T07:13:16;13.80;;;3.17;;
7875;SDS011;69649;53.712;9.680;2023-09-30T07:15:43;6.73;;;2.53;;
7875;SDS011;69649;53.712;9.680;2023-09-30T07:18:09;6.63;;;2.20;;
7875;SDS011;69649;53.712;9.680;2023-09-30T07:20:35;7.20;;;2.73;;
7875;SDS011;69649;53.712;9.680;2023-09-30T07:23:00;9.60;;;2.50;;
7875;SDS011;69649;53.712;9.680;2023-09-30T07:25:27;8.43;;;2.80;;
7875;SDS011;69649;53.712;9.680;2023-09-30T07:27:53;8.10;;;2.43;;
7875;SDS011;69649;53.712;9.680;2023-09-30T07:30:19;7.10;;;2.23;;
7875;SDS011;69649;53.712;9.680;2023-09-30T07:32:45;6.93;;;2.50;;
7875;SDS011;69649;53.712;9.680;2023-09-30T07:35:11;8.93;;;2.97;;
7875;SDS011;69649;53.712;9.680;2023-09-30T07:37:37;12.70;;;2.73;;
7875;SDS011;69649;53.712;9.680;2023-09-30T07:40:04;9.00;;;2.53;;
7875;SDS011;69649;53.712;9.680;2023-09-30T07:42:31;10.47;;;2.40;;
7875;SDS011;69649;53.712;9.680;2023-09-30T07:44:58;8.90;;;3.07;;
7875;SDS011;69649;53.712;9.680;2023-09-30T07:47:24;6.93;;;2.33;;
7875;SDS011;69649;53.712;9.680;2023-09-30T07:49:50;11.43;;;2.53;;
7875;SDS011;69649;53.712;9.680;2023-09-30T07:52:16;5.93;;;2.53;;
7875;SDS011;69649;53.712;9.680;2023-09-30T07:54:41;9.77;;;2.90;;
7875;SDS011;69649;53.712;9.680;2023-09-30T07:57:07;10.57;;;2.20;;
7875;SDS011;69649;53.712;9.680;2023-09-30T07:59:40;12.90;;;3.00;;
7875;SDS011;69649;53.712;9.680;2023-09-30T08:02:06;9.17;;;2.87;;
7875;SDS011;69649;53.712;9.680;2023-09-30T08:04:32;7.83;;;2.20;;
7875;SDS011;69649;53.712;9.680;2023-09-30T08:06:58;7.37;;;2.13;;
7875;SDS011;69649;53.712;9.680;2023-09-30T08:09:23;6.47;;;2.27;;
7875;SDS011;69649;53.712;9.680;2023-09-30T08:11:50;7.23;;;2.07;;
7875;SDS011;69649;53.712;9.680;2023-09-30T08:14:16;8.07;;;2.50;;
7875;SDS011;69649;53.712;9.680;2023-09-30T08:16:42;5.90;;;2.13;;
7875;SDS011;69649;53.712;9.680;2023-09-30T08:19:08;10.20;;;2.80;;
7875;SDS011;69649;53.712;9.680;2023-09-30T08:21:34;8.47;;;1.87;;
7875;SDS011;69649;53.712;9.680;2023-09-30T08:24:00;8.67;;;2.07;;
7875;SDS011;69649;53.712;9.680;2023-09-30T08:26:27;7.67;;;2.20;;
7875;SDS011;69649;53.712;9.680;2023-09-30T08:28:53;5.93;;;2.30;;
7875;SDS011;69649;53.712;9.680;2023-09-30T08:31:19;7.17;;;2.30;;
7875;SDS011;69649;53.712;9.680;2023-09-30T08:33:47;5.00;;;3.20;;
7875;SDS011;69649;53.712;9.680;2023-09-30T08:36:13;9.97;;;1.93;;
7875;SDS011;69649;53.712;9.680;2023-09-30T08:38:39;6.40;;;2.30;;
7875;SDS011;69649;53.712;9.680;2023-09-30T08:41:06;9.97;;;2.60;;
7875;SDS011;69649;53.712;9.680;2023-09-30T08:43:39;6.43;;;2.47;;
7875;SDS011;69649;53.712;9.680;2023-09-30T08:46:06;3.73;;;2.00;;
7875;SDS011;69649;53.712;9.680;2023-09-30T08:48:32;7.73;;;2.00;;
7875;SDS011;69649;53.712;9.680;2023-09-30T08:50:59;10.73;;;2.07;;
7875;SDS011;69649;53.712;9.680;2023-09-30T08:53:28;13.63;;;2.83;;
7875;SDS011;69649;53.712;9.680;2023-09-30T08:55:55;9.37;;;2.27;;
7875;SDS011;69649;53.712;9.680;2023-09-30T08:58:24;9.07;;;2.20;;
7875;SDS011;69649;53.712;9.680;2023-09-30T09:00:52;7.13;;;2.00;;
7875;SDS011;69649;53.712;9.680;2023-09-30T09:03:19;5.27;;;2.00;;
7875;SDS011;69649;53.712;9.680;2023-09-30T09:05:55;6.53;;;2.10;;
7875;SDS011;69649;53.712;9.680;2023-09-30T09:08:22;11.13;;;2.13;;
7875;SDS011;69649;53.712;9.680;2023-09-30T09:10:57;11.00;;;2.30;;
7875;SDS011;69649;53.712;9.680;2023-09-30T09:13:24;7.87;;;2.03;;
7875;SDS011;69649;53.712;9.680;2023-09-30T09:16:12;6.83;;;2.17;;
7875;SDS011;69649;53.712;9.680;2023-09-30T09:18:32;9.30;;;2.23;;
7875;SDS011;69649;53.712;9.680;2023-09-30T09:21:11;9.20;;;2.20;;
7875;SDS011;69649;53.712;9.680;2023-09-30T09:26:27;9.40;;;2.03;;
7875;SDS011;69649;53.712;9.680;2023-09-30T09:29:00;8.33;;;2.40;;
7875;SDS011;69649;53.712;9.680;2023-09-30T09:31:25;7.40;;;2.03;;
7875;SDS011;69649;53.712;9.680;2023-09-30T09:33:53;10.30;;;2.03;;
7875;SDS011;69649;53.712;9.680;2023-09-30T09:36:19;8.90;;;2.13;;
7875;SDS011;69649;53.712;9.680;2023-09-30T09:38:52;9.23;;;2.30;;
7875;SDS011;69649;53.712;9.680;2023-09-30T09:41:19;13.10;;;2.73;;
7875;SDS011;69649;53.712;9.680;2023-09-30T09:43:48;6.20;;;1.80;;
7875;SDS011;69649;53.712;9.680;2023-09-30T09:46:14;6.83;;;1.60;;
7875;SDS011;69649;53.712;9.680;2023-09-30T09:48:42;8.60;;;1.70;;
7875;SDS011;69649;53.712;9.680;2023-09-30T09:51:11;11.70;;;2.20;;
7875;SDS011;69649;53.712;9.680;2023-09-30T09:53:39;8.60;;;1.60;;
7875;SDS011;69649;53.712;9.680;2023-09-30T09:56:10;7.93;;;2.07;;
7875;SDS011;69649;53.712;9.680;2023-09-30T09:58:38;10.60;;;2.00;;
7875;SDS011;69649;53.712;9.680;2023-09-30T10:01:07;7.53;;;1.93;;
7875;SDS011;69649;53.712;9.680;2023-09-30T10:03:35;9.27;;;2.30;;
7875;SDS011;69649;53.712;9.680;2023-09-30T10:06:03;8.37;;;2.07;;
7875;SDS011;69649;53.712;9.680;2023-09-30T10:08:40;6.57;;;1.93;;
7875;SDS011;69649;53.712;9.680;2023-09-30T10:11:08;9.30;;;2.17;;
7875;SDS011;69649;53.712;9.680;2023-09-30T10:19:07;9.63;;;2.20;;
7875;SDS011;69649;53.712;9.680;2023-09-30T10:21:35;6.73;;;2.10;;
7875;SDS011;69649;53.712;9.680;2023-09-30T10:30:02;8.10;;;2.07;;
7875;SDS011;69649;53.712;9.680;2023-09-30T10:35:21;9.27;;;1.80;;
7875;SDS011;69649;53.712;9.680;2023-09-30T10:40:50;5.23;;;1.80;;
7875;SDS011;69649;53.712;9.680;2023-09-30T10:43:30;8.50;;;1.73;;
7875;SDS011;69649;53.712;9.680;2023-09-30T10:46:01;11.10;;;1.87;;
7875;SDS011;69649;53.712;9.680;2023-09-30T10:50:58;11.23;;;1.80;;
7875;SDS011;69649;53.712;9.680;2023-09-30T10:53:26;6.00;;;1.60;;
7875;SDS011;69649;53.712;9.680;2023-09-30T10:55:56;6.53;;;1.40;;
7875;SDS011;69649;53.712;9.680;2023-09-30T11:01:13;7.00;;;1.60;;
7875;SDS011;69649;53.712;9.680;2023-09-30T11:03:40;6.47;;;1.43;;
7875;SDS011;69649;53.712;9.680;2023-09-30T11:06:07;9.40;;;1.80;;
7875;SDS011;69649;53.712;9.680;2023-09-30T11:08:33;6.10;;;1.60;;
7875;SDS011;69649;53.712;9.680;2023-09-30T11:11:00;5.73;;;1.60;;
7875;SDS011;69649;53.712;9.680;2023-09-30T11:13:33;12.87;;;2.03;;
7875;SDS011;69649;53.712;9.680;2023-09-30T11:16:05;5.57;;;1.47;;
7875;SDS011;69649;53.712;9.680;2023-09-30T11:18:31;11.50;;;2.13;;
7875;SDS011;69649;53.712;9.680;2023-09-30T11:21:04;8.00;;;1.70;;
7875;SDS011;69649;53.712;9.680;2023-09-30T11:23:34;5.93;;;1.10;;
7875;SDS011;69649;53.712;9.680;2023-09-30T11:26:01;4.47;;;1.47;;
7875;SDS011;69649;53.712;9.680;2023-09-30T11:28:35;5.13;;;1.40;;
7875;SDS011;69649;53.712;9.680;2023-09-30T11:31:01;7.70;;;1.50;;
7875;SDS011;69649;53.712;9.680;2023-09-30T11:33:29;5.50;;;1.90;;
7875;SDS011;69649;53.712;9.680;2023-09-30T11:36:03;5.43;;;1.33;;
7875;SDS011;69649;53.712;9.680;2023-09-30T11:38:31;4.60;;;1.30;;
7875;SDS011;69649;53.712;9.680;2023-09-30T11:41:01;6.47;;;1.63;;
7875;SDS011;69649;53.712;9.680;2023-09-30T11:43:38;9.13;;;1.70;;
7875;SDS011;69649;53.712;9.680;2023-09-30T11:46:08;6.70;;;1.23;;
7875;SDS011;69649;53.712;9.680;2023-09-30T11:48:36;6.97;;;1.77;;
7875;SDS011;69649;53.712;9.680;2023-09-30T11:51:03;10.47;;;1.70;;
7875;SDS011;69649;53.712;9.680;2023-09-30T11:53:30;5.77;;;1.40;;
7875;SDS011;69649;53.712;9.680;2023-09-30T11:56:00;5.50;;;1.50;;
7875;SDS011;69649;53.712;9.680;2023-09-30T11:58:32;8.37;;;2.33;;
7875;SDS011;69649;53.712;9.680;2023-09-30T12:00:58;8.30;;;2.03;;
7875;SDS011;69649;53.712;9.680;2023-09-30T12:03:26;5.90;;;1.20;;
7875;SDS011;69649;53.712;9.680;2023-09-30T12:05:55;4.73;;;1.30;;
7875;SDS011;69649;53.712;9.680;2023-09-30T12:08:21;5.03;;;1.37;;
7875;SDS011;69649;53.712;9.680;2023-09-30T12:10:48;5.00;;;1.63;;
7875;SDS011;69649;53.712;9.680;2023-09-30T12:13:15;6.30;;;1.57;;
7875;SDS011;69649;53.712;9.680;2023-09-30T12:15:41;5.60;;;1.50;;
7875;SDS011;69649;53.712;9.680;2023-09-30T12:18:08;3.70;;;1.40;;
7875;SDS011;69649;53.712;9.680;2023-09-30T12:20:35;7.43;;;1.80;;
7875;SDS011;69649;53.712;9.680;2023-09-30T12:23:01;6.37;;;2.13;;
7875;SDS011;69649;53.712;9.680;2023-09-30T12:25:29;8.20;;;1.70;;
7875;SDS011;69649;53.712;9.680;2023-09-30T12:27:55;6.70;;;1.43;;
7875;SDS011;69649;53.712;9.680;2023-09-30T12:30:21;5.20;;;1.40;;
7875;SDS011;69649;53.712;9.680;2023-09-30T12:32:47;7.13;;;1.50;;
7875;SDS011;69649;53.712;9.680;2023-09-30T12:35:13;11.13;;;1.70;;
7875;SDS011;69649;53.712;9.680;2023-09-30T12:37:38;4.97;;;1.20;;
7875;SDS011;69649;53.712;9.680;2023-09-30T12:40:05;4.67;;;1.30;;
7875;SDS011;69649;53.712;9.680;2023-09-30T12:42:36;5.43;;;1.07;;
7875;SDS011;69649;53.712;9.680;2023-09-30T12:45:05;6.43;;;1.53;;
7875;SDS011;69649;53.712;9.680;2023-09-30T12:47:31;5.87;;;1.83;;
7875;SDS011;69649;53.712;9.680;2023-09-30T12:49:57;4.37;;;1.77;;
7875;SDS011;69649;53.712;9.680;2023-09-30T12:52:23;4.93;;;1.97;;
7875;SDS011;69649;53.712;9.680;2023-09-30T12:54:49;6.93;;;2.10;;
7875;SDS011;69649;53.712;9.680;2023-09-30T12:57:15;7.50;;;1.90;;
7875;SDS011;69649;53.712;9.680;2023-09-30T12:59:43;4.33;;;2.40;;
7875;SDS011;69649;53.712;9.680;2023-09-30T13:02:11;4.90;;;1.83;;
7875;SDS011;69649;53.712;9.680;2023-09-30T13:04:37;5.03;;;1.63;;
7875;SDS011;69649;53.712;9.680;2023-09-30T13:07:09;7.83;;;1.47;;
7875;SDS011;69649;53.712;9.680;2023-09-30T13:09:38;4.57;;;1.57;;
7875;SDS011;69649;53.712;9.680;2023-09-30T13:12:05;5.47;;;1.27;;
7875;SDS011;69649;53.712;9.680;2023-09-30T13:14:31;5.13;;;1.43;;
7875;SDS011;69649;53.712;9.680;2023-09-30T13:16:57;8.40;;;1.80;;
7875;SDS011;69649;53.712;9.680;2023-09-30T13:19:23;9.03;;;1.80;;
7875;SDS011;69649;53.712;9.680;2023-09-30T13:21:49;4.77;;;1.57;;
7875;SDS011;69649;53.712;9.680;2023-09-30T13:24:16;6.83;;;1.90;;
7875;SDS011;69649;53.712;9.680;2023-09-30T13:26:42;4.43;;;1.30;;
7875;SDS011;69649;53.712;9.680;2023-09-30T13:29:08;7.07;;;1.73;;
7875;SDS011;69649;53.712;9.680;2023-09-30T13:31:37;7.20;;;1.67;;
7875;SDS011;69649;53.712;9.680;2023-09-30T13:34:04;4.87;;;1.77;;
7875;SDS011;69649;53.712;9.680;2023-09-30T13:36:30;6.73;;;1.60;;
7875;SDS011;69649;53.712;9.680;2023-09-30T13:38:56;6.00;;;2.13;;
7875;SDS011;69649;53.712;9.680;2023-09-30T13:41:22;6.10;;;1.60;;
7875;SDS011;69649;53.712;9.680;2023-09-30T13:43:48;4.30;;;1.47;;
7875;SDS011;69649;53.712;9.680;2023-09-30T13:46:14;5.00;;;1.37;;
7875;SDS011;69649;53.712;9.680;2023-09-30T13:48:41;6.73;;;1.60;;
7875;SDS011;69649;53.712;9.680;2023-09-30T13:51:07;7.23;;;2.47;;
7875;SDS011;69649;53.712;9.680;2023-09-30T13:53:36;6.73;;;1.57;;
7875;SDS011;69649;53.712;9.680;2023-09-30T13:56:02;5.30;;;1.40;;
7875;SDS011;69649;53.712;9.680;2023-09-30T13:58:29;4.43;;;1.07;;
7875;SDS011;69649;53.712;9.680;2023-09-30T14:00:55;5.60;;;1.30;;
7875;SDS011;69649;53.712;9.680;2023-09-30T14:03:23;6.47;;;1.53;;
7875;SDS011;69649;53.712;9.680;2023-09-30T14:05:50;10.30;;;1.40;;
7875;SDS011;69649;53.712;9.680;2023-09-30T14:08:16;10.47;;;1.73;;
7875;SDS011;69649;53.712;9.680;2023-09-30T14:10:42;3.67;;;1.50;;
7875;SDS011;69649;53.712;9.680;2023-09-30T14:13:09;7.57;;;1.30;;
7875;SDS011;69649;53.712;9.680;2023-09-30T14:15:36;8.70;;;1.70;;
7875;SDS011;69649;53.712;9.680;2023-09-30T14:18:02;6.03;;;1.50;;
7875;SDS011;69649;53.712;9.680;2023-09-30T14:20:29;5.03;;;1.27;;
7875;SDS011;69649;53.712;9.680;2023-09-30T14:22:55;6.00;;;1.40;;
7875;SDS011;69649;53.712;9.680;2023-09-30T14:25:21;3.90;;;1.40;;
7875;SDS011;69649;53.712;9.680;2023-09-30T14:27:48;9.03;;;1.20;;
7875;SDS011;69649;53.712;9.680;2023-09-30T14:30:16;4.33;;;1.37;;
7875;SDS011;69649;53.712;9.680;2023-09-30T14:32:42;5.80;;;1.50;;
7875;SDS011;69649;53.712;9.680;2023-09-30T14:35:08;9.37;;;1.67;;
7875;SDS011;69649;53.712;9.680;2023-09-30T14:37:35;5.77;;;2.10;;
7875;SDS011;69649;53.712;9.680;2023-09-30T14:40:02;8.03;;;1.50;;
7875;SDS011;69649;53.712;9.680;2023-09-30T14:42:30;9.30;;;1.33;;
7875;SDS011;69649;53.712;9.680;2023-09-30T14:44:56;2.97;;;1.23;;
7875;SDS011;69649;53.712;9.680;2023-09-30T14:47:22;4.50;;;2.00;;
7875;SDS011;69649;53.712;9.680;2023-09-30T14:49:47;6.60;;;1.40;;
7875;SDS011;69649;53.712;9.680;2023-09-30T14:52:14;5.27;;;1.63;;
7875;SDS011;69649;53.712;9.680;2023-09-30T14:54:41;5.30;;;1.40;;
7875;SDS011;69649;53.712;9.680;2023-09-30T14:57:07;5.70;;;1.27;;
7875;SDS011;69649;53.712;9.680;2023-09-30T14:59:34;6.30;;;2.20;;
7875;SDS011;69649;53.712;9.680;2023-09-30T15:02:00;7.37;;;1.43;;
7875;SDS011;69649;53.712;9.680;2023-09-30T15:04:26;3.60;;;1.20;;
7875;SDS011;69649;53.712;9.680;2023-09-30T15:06:53;5.67;;;1.30;;
7875;SDS011;69649;53.712;9.680;2023-09-30T15:09:19;4.00;;;1.10;;
7875;SDS011;69649;53.712;9.680;2023-09-30T15:11:44;7.00;;;1.67;;
7875;SDS011;69649;53.712;9.680;2023-09-30T15:14:10;6.00;;;1.13;;
7875;SDS011;69649;53.712;9.680;2023-09-30T15:16:36;6.07;;;1.50;;
7875;SDS011;69649;53.712;9.680;2023-09-30T15:19:02;4.77;;;1.40;;
7875;SDS011;69649;53.712;9.680;2023-09-30T15:21:28;9.83;;;1.77;;
7875;SDS011;69649;53.712;9.680;2023-09-30T15:23:54;5.70;;;1.30;;
7875;SDS011;69649;53.712;9.680;2023-09-30T15:26:19;3.87;;;1.50;;
7875;SDS011;69649;53.712;9.680;2023-09-30T15:28:45;5.13;;;1.83;;
7875;SDS011;69649;53.712;9.680;2023-09-30T15:31:11;10.77;;;2.07;;